sensor_id;sensor_type;location;lat;lon;timestamp;pressure;altitude;pressure_sealevel;temperature;humidity
21234;BME280;10774;42.178;26.578;2024-03-02T00:00:05;99749.84;;;10.16;100.00
21234;BME280;10774;42.178;26.578;2024-03-02T00:02:43;99726.38;;;10.20;100.00
21234;BME280;10774;42.178;26.578;2024-03-02T00:05:20;99736.84;;;10.25;100.00
21234;BME280;10774;42.178;26.578;2024-03-02T00:07:55;99737.84;;;10.22;100.00
21234;BME280;10774;42.178;26.578;2024-03-02T00:10:24;99740.06;;;10.15;100.00
21234;BME280;10774;42.178;26.578;2024-03-02T00:12:54;99740.75;;;10.19;100.00
21234;BME280;10774;42.178;26.578;2024-03-02T00:18:01;99708.06;;;10.27;100.00
21234;BME280;10774;42.178;26.578;2024-03-02T00:20:26;99706.50;;;10.22;100.00
21234;BME280;10774;42.178;26.578;2024-03-02T00:23:02;99699.50;;;10.07;100.00
21234;BME280;10774;42.178;26.578;2024-03-02T00:25:39;99687.34;;;10.02;100.00
21234;BME280;10774;42.178;26.578;2024-03-02T00:28:19;99708.31;;;10.09;100.00
21234;BME280;10774;42.178;26.578;2024-03-02T00:33:22;99710.38;;;10.18;100.00
21234;BME280;10774;42.178;26.578;2024-03-02T00:35:49;99712.50;;;10.13;100.00
21234;BME280;10774;42.178;26.578;2024-03-02T00:38:15;99704.75;;;10.09;100.00
21234;BME280;10774;42.178;26.578;2024-03-02T00:40:42;99707.34;;;10.10;100.00
21234;BME280;10774;42.178;26.578;2024-03-02T00:43:27;99710.78;;;10.12;100.00
21234;BME280;10774;42.178;26.578;2024-03-02T00:46:02;99694.28;;;10.18;100.00
21234;BME280;10774;42.178;26.578;2024-03-02T00:48:28;99697.72;;;10.20;100.00
21234;BME280;10774;42.178;26.578;2024-03-02T00:50:56;99695.75;;;10.10;100.00
21234;BME280;10774;42.178;26.578;2024-03-02T00:53:24;99683.78;;;10.01;100.00
21234;BME280;10774;42.178;26.578;2024-03-02T00:55:51;99701.56;;;10.16;100.00
21234;BME280;10774;42.178;26.578;2024-03-02T00:58:17;99685.47;;;10.16;100.00
21234;BME280;10774;42.178;26.578;2024-03-02T01:03:17;99680.53;;;10.10;100.00
21234;BME280;10774;42.178;26.578;2024-03-02T01:05:44;99679.69;;;10.22;100.00
21234;BME280;10774;42.178;26.578;2024-03-02T01:08:10;99682.34;;;10.24;100.00
21234;BME280;10774;42.178;26.578;2024-03-02T01:10:36;99666.06;;;10.13;100.00
21234;BME280;10774;42.178;26.578;2024-03-02T01:13:01;99663.69;;;10.08;100.00
21234;BME280;10774;42.178;26.578;2024-03-02T01:15:27;99680.66;;;10.21;100.00
21234;BME280;10774;42.178;26.578;2024-03-02T01:17:52;99674.31;;;10.22;100.00
21234;BME280;10774;42.178;26.578;2024-03-02T01:20:17;99671.47;;;10.26;100.00
21234;BME280;10774;42.178;26.578;2024-03-02T01:22:43;99672.06;;;10.16;100.00
21234;BME280;10774;42.178;26.578;2024-03-02T01:25:08;99669.19;;;10.19;100.00
21234;BME280;10774;42.178;26.578;2024-03-02T01:27:34;99668.38;;;10.32;100.00
21234;BME280;10774;42.178;26.578;2024-03-02T01:29:59;99649.00;;;10.14;100.00
21234;BME280;10774;42.178;26.578;2024-03-02T01:32:25;99654.38;;;10.14;100.00
21234;BME280;10774;42.178;26.578;2024-03-02T01:34:50;99663.03;;;10.17;100.00
21234;BME280;10774;42.178;26.578;2024-03-02T01:37:16;99658.66;;;10.16;100.00
21234;BME280;10774;42.178;26.578;2024-03-02T01:39:41;99651.78;;;10.12;100.00
21234;BME280;10774;42.178;26.578;2024-03-02T01:42:07;99652.00;;;10.09;100.00
21234;BME280;10774;42.178;26.578;2024-03-02T01:44:32;99651.25;;;10.07;100.00
21234;BME280;10774;42.178;26.578;2024-03-02T01:46:58;99643.81;;;9.98;100.00
21234;BME280;10774;42.178;26.578;2024-03-02T01:49:23;99653.28;;;10.16;100.00
21234;BME280;10774;42.178;26.578;2024-03-02T01:51:49;99657.34;;;10.09;100.00
21234;BME280;10774;42.178;26.578;2024-03-02T01:54:14;99651.31;;;10.06;100.00
21234;BME280;10774;42.178;26.578;2024-03-02T01:56:40;99662.72;;;10.09;100.00
21234;BME280;10774;42.178;26.578;2024-03-02T01:59:06;99679.41;;;10.00;100.00
21234;BME280;10774;42.178;26.578;2024-03-02T02:01:31;99678.19;;;10.18;100.00
21234;BME280;10774;42.178;26.578;2024-03-02T02:03:57;99665.22;;;10.12;100.00
21234;BME280;10774;42.178;26.578;2024-03-02T02:06:22;99674.50;;;10.07;100.00
21234;BME280;10774;42.178;26.578;2024-03-02T02:08:48;99676.97;;;10.10;100.00
21234;BME280;10774;42.178;26.578;2024-03-02T02:11:16;99673.44;;;10.09;100.00
21234;BME280;10774;42.178;26.578;2024-03-02T02:13:42;99666.38;;;10.08;100.00
21234;BME280;10774;42.178;26.578;2024-03-02T02:16:08;99678.28;;;10.17;100.00
21234;BME280;10774;42.178;26.578;2024-03-02T02:18:34;99664.88;;;10.17;100.00
21234;BME280;10774;42.178;26.578;2024-03-02T02:21:02;99652.88;;;10.22;100.00
21234;BME280;10774;42.178;26.578;2024-03-02T02:23:27;99667.09;;;10.25;100.00
21234;BME280;10774;42.178;26.578;2024-03-02T02:25:53;99679.53;;;10.26;100.00
21234;BME280;10774;42.178;26.578;2024-03-02T02:28:18;99668.97;;;10.22;100.00
21234;BME280;10774;42.178;26.578;2024-03-02T02:30:44;99675.22;;;10.23;100.00
21234;BME280;10774;42.178;26.578;2024-03-02T02:33:09;99661.72;;;10.25;100.00
21234;BME280;10774;42.178;26.578;2024-03-02T02:35:36;99675.69;;;10.30;100.00
21234;BME280;10774;42.178;26.578;2024-03-02T02:38:02;99677.13;;;10.21;100.00
21234;BME280;10774;42.178;26.578;2024-03-02T02:40:28;99685.06;;;10.22;100.00
21234;BME280;10774;42.178;26.578;2024-03-02T02:42:59;99678.78;;;10.24;100.00
21234;BME280;10774;42.178;26.578;2024-03-02T02:45:24;99676.31;;;10.06;100.00
21234;BME280;10774;42.178;26.578;2024-03-02T02:47:50;99686.84;;;10.24;100.00
21234;BME280;10774;42.178;26.578;2024-03-02T02:50:15;99683.97;;;10.12;100.00
21234;BME280;10774;42.178;26.578;2024-03-02T02:52:41;99688.56;;;10.25;100.00
21234;BME280;10774;42.178;26.578;2024-03-02T02:55:09;99687.41;;;10.14;100.00
21234;BME280;10774;42.178;26.578;2024-03-02T02:57:35;99668.09;;;10.22;100.00
21234;BME280;10774;42.178;26.578;2024-03-02T03:00:04;99686.41;;;10.30;100.00
21234;BME280;10774;42.178;26.578;2024-03-02T03:02:35;99684.91;;;10.26;100.00
21234;BME280;10774;42.178;26.578;2024-03-02T03:05:01;99684.47;;;10.32;100.00
21234;BME280;10774;42.178;26.578;2024-03-02T03:07:26;99660.59;;;10.14;100.00
21234;BME280;10774;42.178;26.578;2024-03-02T03:09:51;99678.63;;;10.12;100.00
21234;BME280;10774;42.178;26.578;2024-03-02T03:12:17;99673.13;;;10.14;100.00
21234;BME280;10774;42.178;26.578;2024-03-02T03:14:42;99673.47;;;10.22;100.00
21234;BME280;10774;42.178;26.578;2024-03-02T03:17:07;99655.00;;;10.17;100.00
21234;BME280;10774;42.178;26.578;2024-03-02T03:19:33;99656.25;;;9.99;100.00
21234;BME280;10774;42.178;26.578;2024-03-02T03:21:59;99651.28;;;9.93;100.00
21234;BME280;10774;42.178;26.578;2024-03-02T03:24:24;99649.47;;;9.93;100.00
21234;BME280;10774;42.178;26.578;2024-03-02T03:26:49;99646.97;;;9.90;100.00
21234;BME280;10774;42.178;26.578;2024-03-02T03:29:15;99641.41;;;9.93;100.00
21234;BME280;10774;42.178;26.578;2024-03-02T03:31:40;99641.53;;;9.92;100.00
21234;BME280;10774;42.178;26.578;2024-03-02T03:34:06;99630.41;;;9.98;100.00
21234;BME280;10774;42.178;26.578;2024-03-02T03:36:31;99629.25;;;10.02;100.00
21234;BME280;10774;42.178;26.578;2024-03-02T03:38:56;99643.63;;;10.14;100.00
21234;BME280;10774;42.178;26.578;2024-03-02T03:41:22;99639.56;;;10.08;100.00
21234;BME280;10774;42.178;26.578;2024-03-02T03:43:48;99642.00;;;10.11;100.00
21234;BME280;10774;42.178;26.578;2024-03-02T03:46:13;99648.75;;;10.04;100.00
21234;BME280;10774;42.178;26.578;2024-03-02T03:48:39;99641.13;;;9.98;100.00
21234;BME280;10774;42.178;26.578;2024-03-02T03:51:04;99650.47;;;10.05;100.00
21234;BME280;10774;42.178;26.578;2024-03-02T03:53:30;99654.97;;;10.05;100.00
21234;BME280;10774;42.178;26.578;2024-03-02T03:55:55;99659.66;;;10.01;100.00
21234;BME280;10774;42.178;26.578;2024-03-02T03:58:20;99649.75;;;9.89;100.00
21234;BME280;10774;42.178;26.578;2024-03-02T04:00:46;99647.63;;;9.94;100.00
21234;BME280;10774;42.178;26.578;2024-03-02T04:03:11;99643.81;;;9.98;100.00
21234;BME280;10774;42.178;26.578;2024-03-02T04:05:37;99644.91;;;10.08;100.00
21234;BME280;10774;42.178;26.578;2024-03-02T04:08:03;99656.19;;;10.13;100.00
21234;BME280;10774;42.178;26.578;2024-03-02T04:10:29;99651.88;;;10.11;100.00
21234;BME280;10774;42.178;26.578;2024-03-02T04:12:55;99648.16;;;10.13;100.00
21234;BME280;10774;42.178;26.578;2024-03-02T04:15:21;99646.44;;;10.12;100.00
21234;BME280;10774;42.178;26.578;2024-03-02T04:17:48;99651.38;;;10.18;100.00
21234;BME280;10774;42.178;26.578;2024-03-02T04:20:13;99635.22;;;10.06;100.00
21234;BME280;10774;42.178;26.578;2024-03-02T04:22:39;99631.50;;;10.08;100.00
21234;BME280;10774;42.178;26.578;2024-03-02T04:25:04;99638.72;;;10.20;100.00
21234;BME280;10774;42.178;26.578;2024-03-02T04:27:31;99621.88;;;10.18;100.00
21234;BME280;10774;42.178;26.578;2024-03-02T04:29:59;99620.56;;;10.11;100.00
21234;BME280;10774;42.178;26.578;2024-03-02T04:32:26;99624.72;;;10.03;100.00
21234;BME280;10774;42.178;26.578;2024-03-02T04:34:52;99636.56;;;10.13;100.00
21234;BME280;10774;42.178;26.578;2024-03-02T04:37:18;99646.25;;;10.01;100.00
21234;BME280;10774;42.178;26.578;2024-03-02T04:39:43;99653.38;;;10.02;100.00
21234;BME280;10774;42.178;26.578;2024-03-02T04:42:08;99628.13;;;9.92;100.00
21234;BME280;10774;42.178;26.578;2024-03-02T04:44:34;99660.78;;;10.11;100.00
21234;BME280;10774;42.178;26.578;2024-03-02T04:46:59;99652.47;;;10.02;100.00
21234;BME280;10774;42.178;26.578;2024-03-02T04:49:25;99667.13;;;10.10;100.00
21234;BME280;10774;42.178;26.578;2024-03-02T04:51:50;99663.25;;;10.29;100.00
21234;BME280;10774;42.178;26.578;2024-03-02T04:54:16;99657.03;;;10.28;100.00
21234;BME280;10774;42.178;26.578;2024-03-02T04:56:42;99651.00;;;10.25;100.00
21234;BME280;10774;42.178;26.578;2024-03-02T04:59:14;99662.75;;;10.22;100.00
21234;BME280;10774;42.178;26.578;2024-03-02T05:01:40;99654.25;;;10.15;100.00
21234;BME280;10774;42.178;26.578;2024-03-02T05:04:05;99659.50;;;10.17;100.00
21234;BME280;10774;42.178;26.578;2024-03-02T05:06:30;99674.19;;;10.11;100.00
21234;BME280;10774;42.178;26.578;2024-03-02T05:08:56;99662.72;;;10.09;100.00
21234;BME280;10774;42.178;26.578;2024-03-02T05:11:22;99659.84;;;10.12;100.00
21234;BME280;10774;42.178;26.578;2024-03-02T05:14:02;99655.81;;;10.05;100.00
21234;BME280;10774;42.178;26.578;2024-03-02T05:16:28;99661.88;;;10.21;100.00
21234;BME280;10774;42.178;26.578;2024-03-02T05:18:53;99656.78;;;10.04;100.00
21234;BME280;10774;42.178;26.578;2024-03-02T05:21:19;99661.72;;;9.98;100.00
21234;BME280;10774;42.178;26.578;2024-03-02T05:23:44;99655.63;;;10.08;100.00
21234;BME280;10774;42.178;26.578;2024-03-02T05:26:10;99651.78;;;10.12;100.00
21234;BME280;10774;42.178;26.578;2024-03-02T05:28:38;99649.28;;;10.24;100.00
21234;BME280;10774;42.178;26.578;2024-03-02T05:31:04;99650.53;;;10.18;100.00
21234;BME280;10774;42.178;26.578;2024-03-02T05:33:30;99659.03;;;10.25;100.00
21234;BME280;10774;42.178;26.578;2024-03-02T05:35:57;99646.44;;;10.12;100.00
21234;BME280;10774;42.178;26.578;2024-03-02T05:38:22;99658.22;;;10.22;100.00
21234;BME280;10774;42.178;26.578;2024-03-02T05:40:48;99665.94;;;10.14;100.00
21234;BME280;10774;42.178;26.578;2024-03-02T05:43:13;99668.81;;;10.26;100.00
21234;BME280;10774;42.178;26.578;2024-03-02T05:45:39;99674.84;;;10.29;100.00
21234;BME280;10774;42.178;26.578;2024-03-02T05:48:14;99678.06;;;10.34;100.00
21234;BME280;10774;42.178;26.578;2024-03-02T05:50:39;99676.13;;;10.36;100.00
21234;BME280;10774;42.178;26.578;2024-03-02T05:53:04;99677.00;;;10.37;100.00
21234;BME280;10774;42.178;26.578;2024-03-02T05:55:30;99671.44;;;10.40;100.00
21234;BME280;10774;42.178;26.578;2024-03-02T05:57:56;99685.94;;;10.50;100.00
21234;BME280;10774;42.178;26.578;2024-03-02T06:00:45;99664.78;;;10.45;100.00
21234;BME280;10774;42.178;26.578;2024-03-02T06:03:11;99664.78;;;10.45;100.00
21234;BME280;10774;42.178;26.578;2024-03-02T06:05:38;99668.53;;;10.43;100.00
21234;BME280;10774;42.178;26.578;2024-03-02T06:08:03;99666.94;;;10.53;100.00
21234;BME280;10774;42.178;26.578;2024-03-02T06:10:29;99665.56;;;10.60;100.00
21234;BME280;10774;42.178;26.578;2024-03-02T06:12:54;99650.22;;;10.62;100.00
21234;BME280;10774;42.178;26.578;2024-03-02T06:15:20;99650.63;;;10.69;100.00
21234;BME280;10774;42.178;26.578;2024-03-02T06:17:45;99637.44;;;10.66;100.00
21234;BME280;10774;42.178;26.578;2024-03-02T06:20:24;99638.38;;;10.65;100.00
21234;BME280;10774;42.178;26.578;2024-03-02T06:22:52;99648.38;;;10.76;100.00
21234;BME280;10774;42.178;26.578;2024-03-02T06:25:17;99653.00;;;10.73;100.00
21234;BME280;10774;42.178;26.578;2024-03-02T06:30:46;99636.81;;;10.88;100.00
21234;BME280;10774;42.178;26.578;2024-03-02T06:33:11;99659.91;;;11.03;100.00
21234;BME280;10774;42.178;26.578;2024-03-02T06:35:37;99644.63;;;11.04;100.00
21234;BME280;10774;42.178;26.578;2024-03-02T06:38:03;99649.78;;;10.94;100.00
21234;BME280;10774;42.178;26.578;2024-03-02T06:40:28;99665.88;;;11.07;100.00
21234;BME280;10774;42.178;26.578;2024-03-02T06:42:54;99672.56;;;11.14;100.00
21234;BME280;10774;42.178;26.578;2024-03-02T06:45:22;99675.88;;;11.17;100.00
21234;BME280;10774;42.178;26.578;2024-03-02T06:47:47;99662.03;;;11.23;100.00
21234;BME280;10774;42.178;26.578;2024-03-02T06:50:13;99665.66;;;11.22;100.00
21234;BME280;10774;42.178;26.578;2024-03-02T06:52:39;99663.97;;;11.34;100.00
21234;BME280;10774;42.178;26.578;2024-03-02T06:55:04;99660.28;;;11.35;100.00
21234;BME280;10774;42.178;26.578;2024-03-02T06:57:30;99645.03;;;11.23;100.00
21234;BME280;10774;42.178;26.578;2024-03-02T06:59:56;99654.72;;;11.00;100.00
21234;BME280;10774;42.178;26.578;2024-03-02T07:02:24;99655.25;;;11.05;100.00
21234;BME280;10774;42.178;26.578;2024-03-02T07:04:52;99653.78;;;11.14;100.00
21234;BME280;10774;42.178;26.578;2024-03-02T07:07:19;99670.75;;;11.14;100.00
21234;BME280;10774;42.178;26.578;2024-03-02T07:09:44;99666.63;;;11.21;100.00
21234;BME280;10774;42.178;26.578;2024-03-02T07:12:10;99654.59;;;11.27;100.00
21234;BME280;10774;42.178;26.578;2024-03-02T07:14:35;99663.75;;;11.24;100.00
21234;BME280;10774;42.178;26.578;2024-03-02T07:17:22;99669.13;;;11.24;100.00
21234;BME280;10774;42.178;26.578;2024-03-02T07:19:48;99658.47;;;11.23;100.00
21234;BME280;10774;42.178;26.578;2024-03-02T07:22:13;99669.34;;;11.09;100.00
21234;BME280;10774;42.178;26.578;2024-03-02T07:24:42;99662.03;;;11.11;100.00
21234;BME280;10774;42.178;26.578;2024-03-02T07:27:09;99670.63;;;11.29;100.00
21234;BME280;10774;42.178;26.578;2024-03-02T07:29:35;99672.19;;;11.44;100.00
21234;BME280;10774;42.178;26.578;2024-03-02T07:32:01;99667.13;;;11.52;100.00
21234;BME280;10774;42.178;26.578;2024-03-02T07:34:26;99671.84;;;11.61;100.00
21234;BME280;10774;42.178;26.578;2024-03-02T07:36:52;99667.97;;;11.65;100.00
21234;BME280;10774;42.178;26.578;2024-03-02T07:39:17;99653.78;;;11.63;100.00
21234;BME280;10774;42.178;26.578;2024-03-02T07:41:45;99671.34;;;11.80;100.00
21234;BME280;10774;42.178;26.578;2024-03-02T07:44:11;99662.00;;;11.86;100.00
21234;BME280;10774;42.178;26.578;2024-03-02T07:46:43;99657.91;;;11.93;100.00
21234;BME280;10774;42.178;26.578;2024-03-02T07:49:09;99665.78;;;12.55;100.00
21234;BME280;10774;42.178;26.578;2024-03-02T07:51:35;99673.13;;;13.22;100.00
21234;BME280;10774;42.178;26.578;2024-03-02T07:54:02;99668.72;;;13.43;100.00
21234;BME280;10774;42.178;26.578;2024-03-02T07:56:27;99663.84;;;13.26;100.00
21234;BME280;10774;42.178;26.578;2024-03-02T07:58:53;99648.22;;;13.07;100.00
21234;BME280;10774;42.178;26.578;2024-03-02T08:01:19;99655.06;;;12.77;100.00
21234;BME280;10774;42.178;26.578;2024-03-02T08:03:44;99653.94;;;12.80;100.00
21234;BME280;10774;42.178;26.578;2024-03-02T08:06:15;99659.47;;;12.78;100.00
21234;BME280;10774;42.178;26.578;2024-03-02T08:08:41;99657.25;;;12.83;100.00
21234;BME280;10774;42.178;26.578;2024-03-02T08:11:10;99639.00;;;12.76;100.00
21234;BME280;10774;42.178;26.578;2024-03-02T08:13:38;99623.22;;;12.82;100.00
21234;BME280;10774;42.178;26.578;2024-03-02T08:16:06;99635.50;;;12.87;100.00
21234;BME280;10774;42.178;26.578;2024-03-02T08:18:52;99646.00;;;12.90;100.00
21234;BME280;10774;42.178;26.578;2024-03-02T08:21:18;99645.38;;;12.86;100.00
21234;BME280;10774;42.178;26.578;2024-03-02T08:23:43;99639.31;;;12.60;100.00
21234;BME280;10774;42.178;26.578;2024-03-02T08:26:12;99651.50;;;12.77;100.00
21234;BME280;10774;42.178;26.578;2024-03-02T08:28:38;99654.06;;;12.78;100.00
21234;BME280;10774;42.178;26.578;2024-03-02T08:31:06;99651.75;;;12.96;100.00
21234;BME280;10774;42.178;26.578;2024-03-02T08:33:32;99661.47;;;13.10;100.00
21234;BME280;10774;42.178;26.578;2024-03-02T08:35:57;99665.47;;;12.82;100.00
21234;BME280;10774;42.178;26.578;2024-03-02T08:38:23;99645.53;;;12.96;100.00
21234;BME280;10774;42.178;26.578;2024-03-02T08:40:50;99671.88;;;13.03;100.00
21234;BME280;10774;42.178;26.578;2024-03-02T08:43:15;99664.19;;;13.44;100.00
21234;BME280;10774;42.178;26.578;2024-03-02T08:45:41;99647.31;;;14.28;100.00
21234;BME280;10774;42.178;26.578;2024-03-02T08:48:09;99657.16;;;14.82;100.00
21234;BME280;10774;42.178;26.578;2024-03-02T08:50:35;99653.19;;;14.65;100.00
21234;BME280;10774;42.178;26.578;2024-03-02T08:53:01;99662.63;;;14.39;100.00
21234;BME280;10774;42.178;26.578;2024-03-02T08:55:26;99665.97;;;14.31;100.00
21234;BME280;10774;42.178;26.578;2024-03-02T08:57:52;99662.03;;;14.68;100.00
21234;BME280;10774;42.178;26.578;2024-03-02T09:00:17;99679.41;;;14.54;100.00
21234;BME280;10774;42.178;26.578;2024-03-02T09:02:44;99666.13;;;14.62;100.00
21234;BME280;10774;42.178;26.578;2024-03-02T09:05:10;99667.97;;;14.82;100.00
21234;BME280;10774;42.178;26.578;2024-03-02T09:07:35;99667.81;;;15.05;100.00
21234;BME280;10774;42.178;26.578;2024-03-02T09:10:01;99660.91;;;14.70;100.00
21234;BME280;10774;42.178;26.578;2024-03-02T09:12:26;99666.13;;;14.62;100.00
21234;BME280;10774;42.178;26.578;2024-03-02T09:14:52;99665.38;;;14.60;100.00
21234;BME280;10774;42.178;26.578;2024-03-02T09:17:17;99669.75;;;14.72;100.00
21234;BME280;10774;42.178;26.578;2024-03-02T09:19:42;99657.09;;;14.94;100.00
21234;BME280;10774;42.178;26.578;2024-03-02T09:22:08;99660.44;;;15.07;100.00
21234;BME280;10774;42.178;26.578;2024-03-02T09:24:34;99658.81;;;14.95;100.00
21234;BME280;10774;42.178;26.578;2024-03-02T09:27:00;99660.78;;;14.93;100.00
21234;BME280;10774;42.178;26.578;2024-03-02T09:29:25;99650.53;;;15.17;100.00
21234;BME280;10774;42.178;26.578;2024-03-02T09:31:51;99666.91;;;14.95;100.00
21234;BME280;10774;42.178;26.578;2024-03-02T09:34:17;99640.75;;;14.95;100.00
21234;BME280;10774;42.178;26.578;2024-03-02T09:36:42;99650.91;;;15.03;100.00
21234;BME280;10774;42.178;26.578;2024-03-02T09:39:08;99652.38;;;15.47;97.44
21234;BME280;10774;42.178;26.578;2024-03-02T09:41:36;99636.88;;;15.89;94.39
21234;BME280;10774;42.178;26.578;2024-03-02T09:44:02;99655.84;;;16.28;89.79
21234;BME280;10774;42.178;26.578;2024-03-02T09:46:28;99659.41;;;16.29;87.36
21234;BME280;10774;42.178;26.578;2024-03-02T09:48:53;99648.53;;;15.90;90.07
21234;BME280;10774;42.178;26.578;2024-03-02T09:51:19;99659.63;;;15.87;90.94
21234;BME280;10774;42.178;26.578;2024-03-02T09:53:45;99650.28;;;16.01;90.55
21234;BME280;10774;42.178;26.578;2024-03-02T09:56:11;99641.16;;;16.02;88.59
21234;BME280;10774;42.178;26.578;2024-03-02T09:58:38;99642.84;;;16.03;87.78
21234;BME280;10774;42.178;26.578;2024-03-02T10:01:06;99640.59;;;16.17;86.89
21234;BME280;10774;42.178;26.578;2024-03-02T10:03:33;99642.03;;;16.31;86.98
21234;BME280;10774;42.178;26.578;2024-03-02T10:06:27;99630.31;;;16.60;83.18
21234;BME280;10774;42.178;26.578;2024-03-02T10:08:54;99626.50;;;16.43;83.18
21234;BME280;10774;42.178;26.578;2024-03-02T10:14:06;99614.38;;;15.99;85.01
21234;BME280;10774;42.178;26.578;2024-03-02T10:16:39;99613.03;;;15.33;88.89
21234;BME280;10774;42.178;26.578;2024-03-02T10:19:22;99605.56;;;15.16;90.61
21234;BME280;10774;42.178;26.578;2024-03-02T10:21:48;99615.91;;;15.41;90.48
21234;BME280;10774;42.178;26.578;2024-03-02T10:24:18;99597.47;;;15.56;90.42
21234;BME280;10774;42.178;26.578;2024-03-02T10:26:44;99613.94;;;14.82;94.26
21234;BME280;10774;42.178;26.578;2024-03-02T10:29:10;99610.22;;;15.44;91.19
21234;BME280;10774;42.178;26.578;2024-03-02T10:31:39;99594.25;;;14.38;96.97
21234;BME280;10774;42.178;26.578;2024-03-02T10:34:06;99585.28;;;15.01;97.35
21234;BME280;10774;42.178;26.578;2024-03-02T10:36:35;99593.88;;;15.46;94.23
21234;BME280;10774;42.178;26.578;2024-03-02T10:39:03;99593.69;;;15.78;91.80
21234;BME280;10774;42.178;26.578;2024-03-02T10:41:32;99587.34;;;15.18;90.04
21234;BME280;10774;42.178;26.578;2024-03-02T10:43:59;99591.78;;;15.19;95.31
21234;BME280;10774;42.178;26.578;2024-03-02T10:46:28;99592.28;;;15.43;93.94
21234;BME280;10774;42.178;26.578;2024-03-02T10:48:58;99587.84;;;15.02;96.05
21234;BME280;10774;42.178;26.578;2024-03-02T10:51:24;99586.09;;;14.91;95.73
21234;BME280;10774;42.178;26.578;2024-03-02T10:53:52;99586.66;;;14.64;95.06
21234;BME280;10774;42.178;26.578;2024-03-02T10:56:25;99572.78;;;15.00;96.79
21234;BME280;10774;42.178;26.578;2024-03-02T10:58:55;99586.41;;;15.69;91.50
21234;BME280;10774;42.178;26.578;2024-03-02T11:01:21;99590.16;;;15.87;89.11
21234;BME280;10774;42.178;26.578;2024-03-02T11:03:47;99590.59;;;16.31;87.36
21234;BME280;10774;42.178;26.578;2024-03-02T11:06:13;99586.69;;;16.82;82.14
21234;BME280;10774;42.178;26.578;2024-03-02T11:08:40;99577.91;;;16.22;81.52
21234;BME280;10774;42.178;26.578;2024-03-02T11:11:07;99576.38;;;16.95;79.46
21234;BME280;10774;42.178;26.578;2024-03-02T11:13:37;99570.16;;;15.69;83.61
21234;BME280;10774;42.178;26.578;2024-03-02T11:16:41;99567.00;;;16.61;79.31
21234;BME280;10774;42.178;26.578;2024-03-02T11:19:16;99555.59;;;14.38;96.60
21234;BME280;10774;42.178;26.578;2024-03-02T11:21:42;99562.75;;;14.90;95.58
21234;BME280;10774;42.178;26.578;2024-03-02T11:26:52;99556.66;;;14.47;96.26
21234;BME280;10774;42.178;26.578;2024-03-02T11:29:49;99557.44;;;14.37;98.77
21234;BME280;10774;42.178;26.578;2024-03-02T11:32:22;99550.50;;;14.56;99.13
21234;BME280;10774;42.178;26.578;2024-03-02T11:34:51;99546.56;;;16.00;92.00
21234;BME280;10774;42.178;26.578;2024-03-02T11:37:18;99549.31;;;16.76;84.24
21234;BME280;10774;42.178;26.578;2024-03-02T11:39:46;99535.91;;;17.39;78.57
21234;BME280;10774;42.178;26.578;2024-03-02T11:42:12;99545.94;;;17.29;76.32
21234;BME280;10774;42.178;26.578;2024-03-02T11:44:48;99537.69;;;17.76;73.67
21234;BME280;10774;42.178;26.578;2024-03-02T11:47:15;99547.31;;;17.15;73.46
21234;BME280;10774;42.178;26.578;2024-03-02T11:49:50;99546.88;;;17.20;77.32
21234;BME280;10774;42.178;26.578;2024-03-02T11:52:20;99535.31;;;17.45;76.47
21234;BME280;10774;42.178;26.578;2024-03-02T11:54:46;99533.97;;;17.49;73.17
21234;BME280;10774;42.178;26.578;2024-03-02T11:57:14;99531.88;;;18.07;72.92
21234;BME280;10774;42.178;26.578;2024-03-02T11:59:43;99523.69;;;17.98;71.76
21234;BME280;10774;42.178;26.578;2024-03-02T12:02:15;99530.06;;;18.33;69.89
21234;BME280;10774;42.178;26.578;2024-03-02T12:04:41;99522.81;;;18.16;68.65
21234;BME280;10774;42.178;26.578;2024-03-02T12:07:09;99523.28;;;17.93;70.40
21234;BME280;10774;42.178;26.578;2024-03-02T12:09:35;99515.97;;;18.12;69.80
21234;BME280;10774;42.178;26.578;2024-03-02T12:12:05;99524.66;;;17.34;73.30
21234;BME280;10774;42.178;26.578;2024-03-02T12:14:35;99520.41;;;17.49;74.30
21234;BME280;10774;42.178;26.578;2024-03-02T12:17:01;99521.09;;;16.59;77.97
21234;BME280;10774;42.178;26.578;2024-03-02T12:19:28;99519.16;;;17.26;76.56
21234;BME280;10774;42.178;26.578;2024-03-02T12:21:58;99512.88;;;17.25;74.35
21234;BME280;10774;42.178;26.578;2024-03-02T12:24:30;99516.78;;;16.76;77.31
21234;BME280;10774;42.178;26.578;2024-03-02T12:27:05;99516.28;;;17.28;75.97
21234;BME280;10774;42.178;26.578;2024-03-02T12:29:32;99508.28;;;17.26;75.88
21234;BME280;10774;42.178;26.578;2024-03-02T12:31:58;99511.22;;;17.15;74.38
21234;BME280;10774;42.178;26.578;2024-03-02T12:34:24;99514.47;;;15.76;80.75
21234;BME280;10774;42.178;26.578;2024-03-02T12:36:51;99494.69;;;15.76;82.58
21234;BME280;10774;42.178;26.578;2024-03-02T12:39:21;99511.50;;;15.89;83.90
21234;BME280;10774;42.178;26.578;2024-03-02T12:41:50;99503.16;;;16.39;82.60
21234;BME280;10774;42.178;26.578;2024-03-02T12:44:24;99496.63;;;16.41;81.80
21234;BME280;10774;42.178;26.578;2024-03-02T12:47:16;99509.78;;;16.17;83.40
21234;BME280;10774;42.178;26.578;2024-03-02T12:49:42;99499.78;;;16.08;81.59
21234;BME280;10774;42.178;26.578;2024-03-02T12:52:08;99495.75;;;16.51;79.71
21234;BME280;10774;42.178;26.578;2024-03-02T12:54:33;99502.78;;;16.81;78.03
21234;BME280;10774;42.178;26.578;2024-03-02T12:56:59;99501.88;;;16.99;76.65
21234;BME280;10774;42.178;26.578;2024-03-02T12:59:24;99507.16;;;16.91;74.66